sensor_id;sensor_type;location;lat;lon;timestamp;pressure;altitude;pressure_sealevel;temperature;humidity
60817;BME280;51921;51.518;-3.188;2023-05-19T00:01:44;102435.78;;;14.31;49.91
60817;BME280;51921;51.518;-3.188;2023-05-19T00:04:09;102435.90;;;14.01;51.54
60817;BME280;51921;51.518;-3.188;2023-05-19T00:06:34;102430.25;;;13.09;53.00
60817;BME280;51921;51.518;-3.188;2023-05-19T00:09:01;102435.86;;;11.91;55.94
60817;BME280;51921;51.518;-3.188;2023-05-19T00:11:26;102433.37;;;11.98;55.81
60817;BME280;51921;51.518;-3.188;2023-05-19T00:13:52;102430.70;;;11.94;55.53
60817;BME280;51921;51.518;-3.188;2023-05-19T00:16:16;102431.66;;;13.49;52.38
60817;BME280;51921;51.518;-3.188;2023-05-19T00:18:41;102428.04;;;13.31;52.09
60817;BME280;51921;51.518;-3.188;2023-05-19T00:21:07;102428.46;;;12.89;52.67
60817;BME280;51921;51.518;-3.188;2023-05-19T00:23:32;102420.66;;;13.52;50.72
60817;BME280;51921;51.518;-3.188;2023-05-19T00:25:58;102420.51;;;14.23;49.08
60817;BME280;51921;51.518;-3.188;2023-05-19T00:28:23;102422.73;;;14.48;48.94
60817;BME280;51921;51.518;-3.188;2023-05-19T00:30:49;102424.32;;;14.23;48.55
60817;BME280;51921;51.518;-3.188;2023-05-19T00:33:14;102428.13;;;14.50;48.57
60817;BME280;51921;51.518;-3.188;2023-05-19T00:35:40;102430.45;;;14.16;47.59
60817;BME280;51921;51.518;-3.188;2023-05-19T00:38:05;102431.67;;;14.03;47.69
60817;BME280;51921;51.518;-3.188;2023-05-19T00:40:31;102435.70;;;13.11;49.10
60817;BME280;51921;51.518;-3.188;2023-05-19T00:42:56;102432.42;;;13.00;49.72
60817;BME280;51921;51.518;-3.188;2023-05-19T00:45:21;102428.38;;;12.94;50.31
60817;BME280;51921;51.518;-3.188;2023-05-19T00:47:47;102425.22;;;13.79;49.01
60817;BME280;51921;51.518;-3.188;2023-05-19T00:50:12;102419.56;;;13.70;49.09
60817;BME280;51921;51.518;-3.188;2023-05-19T00:52:38;102421.49;;;13.64;49.29
60817;BME280;51921;51.518;-3.188;2023-05-19T00:55:04;102423.97;;;14.71;46.86
60817;BME280;51921;51.518;-3.188;2023-05-19T00:57:29;102424.44;;;13.45;49.65
60817;BME280;51921;51.518;-3.188;2023-05-19T00:59:54;102425.62;;;13.76;49.04
60817;BME280;51921;51.518;-3.188;2023-05-19T01:02:20;102425.65;;;13.59;49.50
60817;BME280;51921;51.518;-3.188;2023-05-19T01:04:45;102423.07;;;13.27;49.07
60817;BME280;51921;51.518;-3.188;2023-05-19T01:07:11;102422.66;;;13.06;48.49
60817;BME280;51921;51.518;-3.188;2023-05-19T01:09:36;102421.94;;;13.49;47.96
60817;BME280;51921;51.518;-3.188;2023-05-19T01:12:01;102422.68;;;13.48;48.26
60817;BME280;51921;51.518;-3.188;2023-05-19T01:14:27;102421.22;;;13.64;48.35
60817;BME280;51921;51.518;-3.188;2023-05-19T01:16:58;102420.46;;;13.85;47.84
60817;BME280;51921;51.518;-3.188;2023-05-19T01:19:30;102417.08;;;13.63;48.46
60817;BME280;51921;51.518;-3.188;2023-05-19T01:21:58;102414.89;;;14.44;46.65
60817;BME280;51921;51.518;-3.188;2023-05-19T01:24:23;102408.12;;;14.58;47.00
60817;BME280;51921;51.518;-3.188;2023-05-19T01:26:47;102408.95;;;14.39;47.03
60817;BME280;51921;51.518;-3.188;2023-05-19T01:29:07;102408.08;;;14.66;47.34
60817;BME280;51921;51.518;-3.188;2023-05-19T01:31:25;102407.20;;;14.54;46.65
60817;BME280;51921;51.518;-3.188;2023-05-19T01:33:52;102401.74;;;13.63;47.49
60817;BME280;51921;51.518;-3.188;2023-05-19T01:36:16;102406.61;;;14.77;47.11
60817;BME280;51921;51.518;-3.188;2023-05-19T01:38:42;102403.31;;;13.94;47.77
60817;BME280;51921;51.518;-3.188;2023-05-19T01:41:07;102406.69;;;12.56;49.73
60817;BME280;51921;51.518;-3.188;2023-05-19T01:43:32;102409.43;;;13.08;49.84
60817;BME280;51921;51.518;-3.188;2023-05-19T01:45:58;102413.36;;;11.95;52.45
60817;BME280;51921;51.518;-3.188;2023-05-19T01:48:23;102411.38;;;12.61;52.34
60817;BME280;51921;51.518;-3.188;2023-05-19T01:50:49;102409.82;;;11.98;53.70
60817;BME280;51921;51.518;-3.188;2023-05-19T01:53:14;102401.47;;;11.97;53.68
60817;BME280;51921;51.518;-3.188;2023-05-19T01:55:43;102400.76;;;12.58;53.03
60817;BME280;51921;51.518;-3.188;2023-05-19T01:58:09;102400.96;;;13.43;51.81
60817;BME280;51921;51.518;-3.188;2023-05-19T02:00:36;102399.40;;;12.27;53.07
60817;BME280;51921;51.518;-3.188;2023-05-19T02:03:06;102399.88;;;13.20;51.73
60817;BME280;51921;51.518;-3.188;2023-05-19T02:05:26;102403.08;;;13.25;51.43
60817;BME280;51921;51.518;-3.188;2023-05-19T02:07:53;102400.58;;;13.96;50.13
60817;BME280;51921;51.518;-3.188;2023-05-19T02:10:18;102405.60;;;13.11;51.22
60817;BME280;51921;51.518;-3.188;2023-05-19T02:12:39;102408.75;;;13.39;50.30
60817;BME280;51921;51.518;-3.188;2023-05-19T02:15:06;102409.72;;;14.30;48.37
60817;BME280;51921;51.518;-3.188;2023-05-19T02:17:31;102410.98;;;13.60;49.86
60817;BME280;51921;51.518;-3.188;2023-05-19T02:19:55;102406.86;;;13.55;49.92
60817;BME280;51921;51.518;-3.188;2023-05-19T02:22:19;102403.96;;;13.48;49.87
60817;BME280;51921;51.518;-3.188;2023-05-19T02:24:45;102395.73;;;13.50;49.97
60817;BME280;51921;51.518;-3.188;2023-05-19T02:27:10;102393.33;;;13.63;49.53
60817;BME280;51921;51.518;-3.188;2023-05-19T02:29:36;102396.54;;;13.75;49.53
60817;BME280;51921;51.518;-3.188;2023-05-19T02:32:01;102399.26;;;13.71;49.57
60817;BME280;51921;51.518;-3.188;2023-05-19T02:34:27;102400.10;;;14.02;47.98
60817;BME280;51921;51.518;-3.188;2023-05-19T02:36:52;102406.17;;;13.09;50.26
60817;BME280;51921;51.518;-3.188;2023-05-19T02:39:18;102404.08;;;13.32;50.12
60817;BME280;51921;51.518;-3.188;2023-05-19T02:41:43;102400.83;;;13.25;50.02
60817;BME280;51921;51.518;-3.188;2023-05-19T02:44:09;102394.13;;;13.55;49.67
60817;BME280;51921;51.518;-3.188;2023-05-19T02:46:34;102396.85;;;13.18;50.18
60817;BME280;51921;51.518;-3.188;2023-05-19T02:49:00;102395.43;;;13.95;49.67
60817;BME280;51921;51.518;-3.188;2023-05-19T02:51:25;102398.97;;;15.47;46.11
60817;BME280;51921;51.518;-3.188;2023-05-19T02:53:51;102397.64;;;14.24;49.13
60817;BME280;51921;51.518;-3.188;2023-05-19T02:56:16;102401.89;;;12.80;51.30
60817;BME280;51921;51.518;-3.188;2023-05-19T02:58:42;102398.09;;;12.64;52.67
60817;BME280;51921;51.518;-3.188;2023-05-19T03:01:07;102397.76;;;13.42;51.13
60817;BME280;51921;51.518;-3.188;2023-05-19T03:03:32;102398.57;;;13.94;50.83
60817;BME280;51921;51.518;-3.188;2023-05-19T03:05:58;102407.85;;;13.16;52.11
60817;BME280;51921;51.518;-3.188;2023-05-19T03:08:23;102411.83;;;12.69;52.48
60817;BME280;51921;51.518;-3.188;2023-05-19T03:10:49;102405.48;;;11.92;55.41
60817;BME280;51921;51.518;-3.188;2023-05-19T03:13:14;102400.64;;;12.39;54.32
60817;BME280;51921;51.518;-3.188;2023-05-19T03:15:40;102394.28;;;13.57;52.06
60817;BME280;51921;51.518;-3.188;2023-05-19T03:18:05;102387.86;;;13.84;52.50
60817;BME280;51921;51.518;-3.188;2023-05-19T03:20:30;102388.06;;;13.56;51.99
60817;BME280;51921;51.518;-3.188;2023-05-19T03:22:56;102393.02;;;14.19;50.81
60817;BME280;51921;51.518;-3.188;2023-05-19T03:25:22;102395.60;;;13.70;51.87
60817;BME280;51921;51.518;-3.188;2023-05-19T03:27:47;102397.61;;;12.32;53.20
60817;BME280;51921;51.518;-3.188;2023-05-19T03:30:13;102395.99;;;11.62;56.22
60817;BME280;51921;51.518;-3.188;2023-05-19T03:32:38;102396.79;;;13.10;53.93
60817;BME280;51921;51.518;-3.188;2023-05-19T03:35:04;102401.74;;;14.94;49.59
60817;BME280;51921;51.518;-3.188;2023-05-19T03:37:29;102404.41;;;14.35;50.40
60817;BME280;51921;51.518;-3.188;2023-05-19T03:39:54;102405.71;;;12.87;52.60
60817;BME280;51921;51.518;-3.188;2023-05-19T03:42:20;102402.86;;;13.38;53.47
60817;BME280;51921;51.518;-3.188;2023-05-19T03:44:45;102403.31;;;13.42;51.60
60817;BME280;51921;51.518;-3.188;2023-05-19T03:47:11;102411.54;;;12.14;54.40
60817;BME280;51921;51.518;-3.188;2023-05-19T03:49:36;102411.00;;;12.80;54.90
60817;BME280;51921;51.518;-3.188;2023-05-19T03:52:02;102412.35;;;13.35;53.00
60817;BME280;51921;51.518;-3.188;2023-05-19T03:54:27;102411.21;;;14.22;51.52
60817;BME280;51921;51.518;-3.188;2023-05-19T03:56:53;102417.31;;;13.61;51.59
60817;BME280;51921;51.518;-3.188;2023-05-19T03:59:18;102418.07;;;13.49;52.05
60817;BME280;51921;51.518;-3.188;2023-05-19T04:01:44;102418.22;;;13.68;52.34
60817;BME280;51921;51.518;-3.188;2023-05-19T04:04:09;102417.81;;;12.77;54.08
60817;BME280;51921;51.518;-3.188;2023-05-19T04:06:35;102416.72;;;12.47;55.99
60817;BME280;51921;51.518;-3.188;2023-05-19T04:09:01;102412.54;;;11.85;56.33
60817;BME280;51921;51.518;-3.188;2023-05-19T04:11:25;102418.30;;;13.67;53.43
60817;BME280;51921;51.518;-3.188;2023-05-19T04:13:51;102424.50;;;14.32;52.05
60817;BME280;51921;51.518;-3.188;2023-05-19T04:16:17;102425.81;;;14.08;52.60
60817;BME280;51921;51.518;-3.188;2023-05-19T04:18:42;102431.49;;;12.19;56.11
60817;BME280;51921;51.518;-3.188;2023-05-19T04:21:07;102436.20;;;12.46;56.51
60817;BME280;51921;51.518;-3.188;2023-05-19T04:23:33;102438.92;;;12.45;56.12
60817;BME280;51921;51.518;-3.188;2023-05-19T04:25:59;102439.03;;;14.96;49.82
60817;BME280;51921;51.518;-3.188;2023-05-19T04:28:24;102440.75;;;13.21;53.86
60817;BME280;51921;51.518;-3.188;2023-05-19T04:30:49;102440.01;;;12.47;55.03
60817;BME280;51921;51.518;-3.188;2023-05-19T04:33:15;102436.39;;;13.58;52.88
60817;BME280;51921;51.518;-3.188;2023-05-19T04:35:40;102435.57;;;12.75;54.61
60817;BME280;51921;51.518;-3.188;2023-05-19T04:38:06;102428.84;;;12.45;54.92
60817;BME280;51921;51.518;-3.188;2023-05-19T04:40:31;102427.09;;;13.04;54.49
60817;BME280;51921;51.518;-3.188;2023-05-19T04:42:56;102423.06;;;11.84;56.80
60817;BME280;51921;51.518;-3.188;2023-05-19T04:45:22;102415.18;;;11.62;57.92
60817;BME280;51921;51.518;-3.188;2023-05-19T04:47:47;102415.08;;;12.63;57.71
60817;BME280;51921;51.518;-3.188;2023-05-19T04:50:13;102414.81;;;13.77;54.85
60817;BME280;51921;51.518;-3.188;2023-05-19T04:52:38;102409.96;;;13.28;54.86
60817;BME280;51921;51.518;-3.188;2023-05-19T04:55:04;102412.26;;;13.60;54.66
60817;BME280;51921;51.518;-3.188;2023-05-19T04:57:29;102411.16;;;14.01;53.56
60817;BME280;51921;51.518;-3.188;2023-05-19T04:59:54;102405.54;;;13.63;54.39
60817;BME280;51921;51.518;-3.188;2023-05-19T05:02:20;102398.06;;;13.16;55.58
60817;BME280;51921;51.518;-3.188;2023-05-19T05:04:45;102389.87;;;13.43;55.29
60817;BME280;51921;51.518;-3.188;2023-05-19T05:07:11;102382.02;;;13.81;54.04
60817;BME280;51921;51.518;-3.188;2023-05-19T05:09:36;102378.82;;;12.82;54.22
60817;BME280;51921;51.518;-3.188;2023-05-19T05:12:02;102376.25;;;13.62;53.56
60817;BME280;51921;51.518;-3.188;2023-05-19T05:14:28;102378.06;;;12.18;56.17
60817;BME280;51921;51.518;-3.188;2023-05-19T05:16:53;102376.85;;;13.01;55.20
60817;BME280;51921;51.518;-3.188;2023-05-19T05:19:19;102375.39;;;13.35;54.27
60817;BME280;51921;51.518;-3.188;2023-05-19T05:21:44;102376.14;;;13.23;52.96
60817;BME280;51921;51.518;-3.188;2023-05-19T05:24:10;102381.26;;;14.42;50.67
60817;BME280;51921;51.518;-3.188;2023-05-19T05:26:35;102388.83;;;15.03;50.00
60817;BME280;51921;51.518;-3.188;2023-05-19T05:29:00;102394.59;;;13.74;53.57
60817;BME280;51921;51.518;-3.188;2023-05-19T05:31:25;102396.01;;;12.70;55.27
60817;BME280;51921;51.518;-3.188;2023-05-19T05:33:51;102398.79;;;12.60;57.68
60817;BME280;51921;51.518;-3.188;2023-05-19T05:36:16;102399.04;;;12.78;57.82
60817;BME280;51921;51.518;-3.188;2023-05-19T05:38:42;102405.63;;;12.61;57.07
60817;BME280;51921;51.518;-3.188;2023-05-19T05:41:07;102411.44;;;13.14;55.65
60817;BME280;51921;51.518;-3.188;2023-05-19T05:43:33;102413.53;;;13.47;55.83
60817;BME280;51921;51.518;-3.188;2023-05-19T05:45:58;102413.41;;;12.13;57.53
60817;BME280;51921;51.518;-3.188;2023-05-19T05:48:24;102414.78;;;12.18;57.17
60817;BME280;51921;51.518;-3.188;2023-05-19T05:50:49;102413.05;;;12.49;56.88
60817;BME280;51921;51.518;-3.188;2023-05-19T05:53:17;102414.79;;;13.72;54.80
60817;BME280;51921;51.518;-3.188;2023-05-19T05:55:41;102415.57;;;13.57;53.59
60817;BME280;51921;51.518;-3.188;2023-05-19T05:58:06;102416.64;;;14.27;51.88
60817;BME280;51921;51.518;-3.188;2023-05-19T06:00:31;102417.44;;;15.11;50.40
60817;BME280;51921;51.518;-3.188;2023-05-19T06:02:57;102412.52;;;14.63;50.82
60817;BME280;51921;51.518;-3.188;2023-05-19T06:05:22;102408.95;;;14.67;50.60
60817;BME280;51921;51.518;-3.188;2023-05-19T06:07:48;102402.03;;;14.61;50.51
60817;BME280;51921;51.518;-3.188;2023-05-19T06:10:13;102395.68;;;14.64;50.88
60817;BME280;51921;51.518;-3.188;2023-05-19T06:12:38;102393.66;;;14.34;50.30
60817;BME280;51921;51.518;-3.188;2023-05-19T06:15:05;102397.23;;;14.91;49.28
60817;BME280;51921;51.518;-3.188;2023-05-19T06:17:29;102397.97;;;14.34;50.27
60817;BME280;51921;51.518;-3.188;2023-05-19T06:19:55;102395.88;;;14.28;49.75
60817;BME280;51921;51.518;-3.188;2023-05-19T06:22:20;102393.44;;;14.07;50.91
60817;BME280;51921;51.518;-3.188;2023-05-19T06:24:45;102393.90;;;14.74;49.40
60817;BME280;51921;51.518;-3.188;2023-05-19T06:27:11;102398.93;;;16.32;47.72
60817;BME280;51921;51.518;-3.188;2023-05-19T06:29:36;102401.00;;;15.51;47.03
60817;BME280;51921;51.518;-3.188;2023-05-19T06:32:02;102396.08;;;15.40;47.15
60817;BME280;51921;51.518;-3.188;2023-05-19T06:34:27;102400.95;;;16.19;46.09
60817;BME280;51921;51.518;-3.188;2023-05-19T06:36:52;102405.98;;;14.89;48.42
60817;BME280;51921;51.518;-3.188;2023-05-19T06:39:18;102409.80;;;15.90;47.42
60817;BME280;51921;51.518;-3.188;2023-05-19T06:41:43;102416.80;;;15.62;46.52
60817;BME280;51921;51.518;-3.188;2023-05-19T06:44:09;102410.94;;;16.16;45.47
60817;BME280;51921;51.518;-3.188;2023-05-19T06:46:34;102401.32;;;16.38;45.63
60817;BME280;51921;51.518;-3.188;2023-05-19T06:49:00;102404.54;;;16.77;44.40
60817;BME280;51921;51.518;-3.188;2023-05-19T06:51:25;102414.12;;;15.51;47.01
60817;BME280;51921;51.518;-3.188;2023-05-19T06:53:50;102406.49;;;15.97;45.84
60817;BME280;51921;51.518;-3.188;2023-05-19T06:56:16;102397.12;;;16.50;45.52
60817;BME280;51921;51.518;-3.188;2023-05-19T06:58:41;102403.10;;;16.69;44.72
60817;BME280;51921;51.518;-3.188;2023-05-19T07:01:07;102408.76;;;16.47;45.68
60817;BME280;51921;51.518;-3.188;2023-05-19T07:03:32;102413.45;;;11.77;55.37
60817;BME280;51921;51.518;-3.188;2023-05-19T07:05:57;102416.15;;;10.93;61.12
60817;BME280;51921;51.518;-3.188;2023-05-19T07:08:23;102411.29;;;12.05;60.24
60817;BME280;51921;51.518;-3.188;2023-05-19T07:10:48;102421.99;;;10.57;65.15
60817;BME280;51921;51.518;-3.188;2023-05-19T07:13:14;102414.16;;;13.94;57.74
60817;BME280;51921;51.518;-3.188;2023-05-19T07:15:40;102413.19;;;16.32;51.27
60817;BME280;51921;51.518;-3.188;2023-05-19T07:18:05;102418.51;;;16.09;49.03
60817;BME280;51921;51.518;-3.188;2023-05-19T07:20:30;102418.52;;;18.05;44.85
60817;BME280;51921;51.518;-3.188;2023-05-19T07:22:55;102424.54;;;17.76;43.85
60817;BME280;51921;51.518;-3.188;2023-05-19T07:25:21;102434.77;;;12.64;55.57
60817;BME280;51921;51.518;-3.188;2023-05-19T07:27:46;102433.12;;;13.25;58.65
60817;BME280;51921;51.518;-3.188;2023-05-19T07:30:12;102432.12;;;11.57;62.24
60817;BME280;51921;51.518;-3.188;2023-05-19T07:32:37;102430.96;;;12.45;62.91
60817;BME280;51921;51.518;-3.188;2023-05-19T07:35:02;102442.76;;;10.90;69.57
60817;BME280;51921;51.518;-3.188;2023-05-19T07:37:27;102436.23;;;12.73;61.16
60817;BME280;51921;51.518;-3.188;2023-05-19T07:39:53;102440.02;;;12.43;61.87
60817;BME280;51921;51.518;-3.188;2023-05-19T07:42:18;102443.32;;;13.60;61.47
60817;BME280;51921;51.518;-3.188;2023-05-19T07:44:43;102446.59;;;16.07;52.98
60817;BME280;51921;51.518;-3.188;2023-05-19T07:47:09;102450.14;;;17.47;48.35
60817;BME280;51921;51.518;-3.188;2023-05-19T07:49:34;102456.21;;;15.72;51.01
60817;BME280;51921;51.518;-3.188;2023-05-19T07:52:00;102456.24;;;13.23;57.54
60817;BME280;51921;51.518;-3.188;2023-05-19T07:54:25;102456.71;;;13.29;60.48
60817;BME280;51921;51.518;-3.188;2023-05-19T07:56:51;102453.68;;;17.41;48.94
60817;BME280;51921;51.518;-3.188;2023-05-19T07:59:16;102458.25;;;18.35;45.62
60817;BME280;51921;51.518;-3.188;2023-05-19T08:01:41;102456.29;;;18.45;46.07
60817;BME280;51921;51.518;-3.188;2023-05-19T08:04:07;102457.62;;;18.38;43.67
60817;BME280;51921;51.518;-3.188;2023-05-19T08:06:32;102461.85;;;17.19;44.96
60817;BME280;51921;51.518;-3.188;2023-05-19T08:08:58;102470.51;;;13.06;55.60
60817;BME280;51921;51.518;-3.188;2023-05-19T08:11:23;102474.76;;;15.44;50.18
60817;BME280;51921;51.518;-3.188;2023-05-19T08:13:48;102465.93;;;18.08;46.09
60817;BME280;51921;51.518;-3.188;2023-05-19T08:16:14;102464.88;;;18.59;44.25
60817;BME280;51921;51.518;-3.188;2023-05-19T08:18:39;102473.58;;;13.55;53.62
60817;BME280;51921;51.518;-3.188;2023-05-19T08:21:04;102471.91;;;13.25;58.46
60817;BME280;51921;51.518;-3.188;2023-05-19T08:23:30;102470.47;;;15.90;52.87
60817;BME280;51921;51.518;-3.188;2023-05-19T08:25:55;102465.95;;;17.05;50.29
60817;BME280;51921;51.518;-3.188;2023-05-19T08:28:21;102466.65;;;17.99;45.76
60817;BME280;51921;51.518;-3.188;2023-05-19T08:30:46;102468.76;;;17.07;47.45
60817;BME280;51921;51.518;-3.188;2023-05-19T08:33:12;102467.08;;;17.51;46.26
60817;BME280;51921;51.518;-3.188;2023-05-19T08:35:37;102470.97;;;13.04;55.58
60817;BME280;51921;51.518;-3.188;2023-05-19T08:38:02;102474.29;;;11.65;64.15
60817;BME280;51921;51.518;-3.188;2023-05-19T08:40:28;102464.40;;;15.36;54.15
60817;BME280;51921;51.518;-3.188;2023-05-19T08:42:53;102462.17;;;16.57;48.94
60817;BME280;51921;51.518;-3.188;2023-05-19T08:45:18;102461.93;;;16.52;48.72
60817;BME280;51921;51.518;-3.188;2023-05-19T08:47:45;102454.59;;;16.46;48.42
60817;BME280;51921;51.518;-3.188;2023-05-19T08:50:10;102450.62;;;17.36;47.88
60817;BME280;51921;51.518;-3.188;2023-05-19T08:52:41;102449.67;;;16.77;48.81
60817;BME280;51921;51.518;-3.188;2023-05-19T08:55:03;102443.09;;;16.69;48.58
60817;BME280;51921;51.518;-3.188;2023-05-19T08:57:26;102439.22;;;16.89;47.91
60817;BME280;51921;51.518;-3.188;2023-05-19T08:59:51;102436.39;;;17.72;47.02
60817;BME280;51921;51.518;-3.188;2023-05-19T09:02:17;102432.72;;;17.07;48.41
60817;BME280;51921;51.518;-3.188;2023-05-19T09:04:42;102435.22;;;16.30;48.74
60817;BME280;51921;51.518;-3.188;2023-05-19T09:07:07;102437.49;;;17.14;48.18
60817;BME280;51921;51.518;-3.188;2023-05-19T09:09:32;102433.25;;;17.54;45.81
60817;BME280;51921;51.518;-3.188;2023-05-19T09:11:58;102436.42;;;17.63;46.07
60817;BME280;51921;51.518;-3.188;2023-05-19T09:14:23;102429.80;;;17.84;45.68
60817;BME280;51921;51.518;-3.188;2023-05-19T09:16:49;102428.64;;;17.51;44.58
60817;BME280;51921;51.518;-3.188;2023-05-19T09:19:14;102426.99;;;18.55;43.61
60817;BME280;51921;51.518;-3.188;2023-05-19T09:21:39;102427.85;;;16.97;45.09
60817;BME280;51921;51.518;-3.188;2023-05-19T09:24:06;102427.97;;;19.13;42.18
60817;BME280;51921;51.518;-3.188;2023-05-19T09:26:36;102421.99;;;18.93;41.63
60817;BME280;51921;51.518;-3.188;2023-05-19T09:28:57;102418.39;;;18.66;42.49
60817;BME280;51921;51.518;-3.188;2023-05-19T09:31:20;102418.37;;;19.66;40.39
60817;BME280;51921;51.518;-3.188;2023-05-19T09:33:46;102413.51;;;19.46;41.15
60817;BME280;51921;51.518;-3.188;2023-05-19T09:36:11;102407.03;;;18.02;43.18
60817;BME280;51921;51.518;-3.188;2023-05-19T09:38:38;102405.76;;;18.41;42.95
60817;BME280;51921;51.518;-3.188;2023-05-19T09:41:03;102407.93;;;19.35;41.79
60817;BME280;51921;51.518;-3.188;2023-05-19T09:43:28;102406.96;;;17.45;45.29
60817;BME280;51921;51.518;-3.188;2023-05-19T09:45:54;102409.27;;;19.71;42.68
60817;BME280;51921;51.518;-3.188;2023-05-19T09:48:18;102412.33;;;19.84;40.66
60817;BME280;51921;51.518;-3.188;2023-05-19T09:50:44;102411.46;;;19.82;39.86
60817;BME280;51921;51.518;-3.188;2023-05-19T09:53:11;102410.55;;;19.99;40.46
60817;BME280;51921;51.518;-3.188;2023-05-19T09:55:34;102410.57;;;19.34;40.37
60817;BME280;51921;51.518;-3.188;2023-05-19T09:57:59;102406.87;;;17.58;42.86
60817;BME280;51921;51.518;-3.188;2023-05-19T10:00:25;102406.87;;;14.79;50.08
60817;BME280;51921;51.518;-3.188;2023-05-19T10:02:50;102401.91;;;16.83;46.25
60817;BME280;51921;51.518;-3.188;2023-05-19T10:05:17;102396.43;;;13.34;54.96
60817;BME280;51921;51.518;-3.188;2023-05-19T10:07:42;102393.15;;;15.54;53.97
60817;BME280;51921;51.518;-3.188;2023-05-19T10:10:10;102391.05;;;17.45;46.82
60817;BME280;51921;51.518;-3.188;2023-05-19T10:12:32;102387.73;;;16.84;47.28
60817;BME280;51921;51.518;-3.188;2023-05-19T10:14:57;102387.50;;;18.69;44.12
60817;BME280;51921;51.518;-3.188;2023-05-19T10:17:24;102384.03;;;19.18;42.71
60817;BME280;51921;51.518;-3.188;2023-05-19T10:19:49;102384.39;;;18.05;45.15
60817;BME280;51921;51.518;-3.188;2023-05-19T10:22:13;102384.07;;;18.20;43.21
60817;BME280;51921;51.518;-3.188;2023-05-19T10:24:38;102381.95;;;19.39;42.07
60817;BME280;51921;51.518;-3.188;2023-05-19T10:27:07;102384.23;;;19.54;41.22
60817;BME280;51921;51.518;-3.188;2023-05-19T10:29:31;102380.81;;;19.76;39.92
60817;BME280;51921;51.518;-3.188;2023-05-19T10:31:55;102377.72;;;15.89;46.66
60817;BME280;51921;51.518;-3.188;2023-05-19T10:34:34;102374.43;;;16.56;47.69
60817;BME280;51921;51.518;-3.188;2023-05-19T10:36:48;102370.58;;;18.46;43.40
60817;BME280;51921;51.518;-3.188;2023-05-19T10:39:16;102370.93;;;16.32;46.25
60817;BME280;51921;51.518;-3.188;2023-05-19T10:41:44;102371.29;;;18.50;42.27
60817;BME280;51921;51.518;-3.188;2023-05-19T10:44:08;102366.80;;;17.59;46.53
60817;BME280;51921;51.518;-3.188;2023-05-19T10:46:26;102364.68;;;18.70;43.50
60817;BME280;51921;51.518;-3.188;2023-05-19T10:48:53;102370.14;;;14.48;52.19
60817;BME280;51921;51.518;-3.188;2023-05-19T10:51:17;102368.57;;;13.79;56.31
60817;BME280;51921;51.518;-3.188;2023-05-19T10:53:43;102367.32;;;15.06;53.65
60817;BME280;51921;51.518;-3.188;2023-05-19T10:56:08;102361.81;;;15.92;50.46
60817;BME280;51921;51.518;-3.188;2023-05-19T10:58:38;102361.73;;;13.04;57.97
60817;BME280;51921;51.518;-3.188;2023-05-19T11:00:59;102363.57;;;14.44;55.61
60817;BME280;51921;51.518;-3.188;2023-05-19T11:03:24;102366.15;;;14.18;56.10
60817;BME280;51921;51.518;-3.188;2023-05-19T11:05:49;102362.57;;;13.01;60.51
60817;BME280;51921;51.518;-3.188;2023-05-19T11:08:14;102360.31;;;11.92;66.37
60817;BME280;51921;51.518;-3.188;2023-05-19T11:10:42;102359.06;;;12.49;65.24
60817;BME280;51921;51.518;-3.188;2023-05-19T11:13:05;102362.39;;;15.93;55.26
60817;BME280;51921;51.518;-3.188;2023-05-19T11:15:34;102358.18;;;16.92;54.61
60817;BME280;51921;51.518;-3.188;2023-05-19T11:17:55;102362.57;;;15.83;50.96
60817;BME280;51921;51.518;-3.188;2023-05-19T11:20:22;102358.13;;;14.19;56.84
60817;BME280;51921;51.518;-3.188;2023-05-19T11:23:00;102358.15;;;15.11;56.68
60817;BME280;51921;51.518;-3.188;2023-05-19T11:25:12;102360.83;;;13.08;59.97
60817;BME280;51921;51.518;-3.188;2023-05-19T11:27:37;102358.33;;;16.13;54.22
60817;BME280;51921;51.518;-3.188;2023-05-19T11:30:07;102352.79;;;18.08;47.47
60817;BME280;51921;51.518;-3.188;2023-05-19T11:32:29;102358.87;;;16.70;48.79
60817;BME280;51921;51.518;-3.188;2023-05-19T11:34:54;102361.87;;;15.80;50.86
60817;BME280;51921;51.518;-3.188;2023-05-19T11:37:18;102361.32;;;13.81;56.89
60817;BME280;51921;51.518;-3.188;2023-05-19T11:39:45;102356.12;;;17.94;50.47
60817;BME280;51921;51.518;-3.188;2023-05-19T11:42:09;102353.53;;;19.07;44.09
60817;BME280;51921;51.518;-3.188;2023-05-19T11:44:34;102353.15;;;14.35;52.60
60817;BME280;51921;51.518;-3.188;2023-05-19T11:47:00;102356.07;;;13.66;56.63
60817;BME280;51921;51.518;-3.188;2023-05-19T11:49:26;102354.39;;;16.91;53.52
60817;BME280;51921;51.518;-3.188;2023-05-19T11:51:51;102351.08;;;18.77;48.01
60817;BME280;51921;51.518;-3.188;2023-05-19T11:54:17;102354.18;;;15.31;50.71
60817;BME280;51921;51.518;-3.188;2023-05-19T11:56:42;102345.88;;;18.48;40.88
60817;BME280;51921;51.518;-3.188;2023-05-19T11:59:07;102351.09;;;18.85;40.06
60817;BME280;51921;51.518;-3.188;2023-05-19T12:01:32;102343.48;;;19.56;39.45
60817;BME280;51921;51.518;-3.188;2023-05-19T12:03:57;102347.09;;;20.18;38.63
60817;BME280;51921;51.518;-3.188;2023-05-19T12:06:24;102344.90;;;18.71;38.20
60817;BME280;51921;51.518;-3.188;2023-05-19T12:08:50;102348.25;;;15.18;45.34
60817;BME280;51921;51.518;-3.188;2023-05-19T12:11:13;102345.10;;;15.32;47.92
60817;BME280;51921;51.518;-3.188;2023-05-19T12:13:38;102339.59;;;16.83;44.17
60817;BME280;51921;51.518;-3.188;2023-05-19T12:16:04;102337.07;;;17.22;41.83
60817;BME280;51921;51.518;-3.188;2023-05-19T12:18:35;102337.06;;;18.95;40.25
60817;BME280;51921;51.518;-3.188;2023-05-19T12:20:55;102336.74;;;16.50;41.97
60817;BME280;51921;51.518;-3.188;2023-05-19T12:23:20;102335.45;;;18.55;39.77
60817;BME280;51921;51.518;-3.188;2023-05-19T12:25:45;102333.72;;;19.97;37.55
60817;BME280;51921;51.518;-3.188;2023-05-19T12:28:10;102328.77;;;21.04;33.89
60817;BME280;51921;51.518;-3.188;2023-05-19T12:30:36;102323.39;;;20.69;34.11